sensor_id;sensor_type;location;lat;lon;timestamp;temperature;humidity
7588;DHT22;3835;48.850;8.938;2023-04-07T00:02:11;5.70;99.90
7588;DHT22;3835;48.850;8.938;2023-04-07T00:04:37;5.70;99.90
7588;DHT22;3835;48.850;8.938;2023-04-07T00:07:04;5.70;99.90
7588;DHT22;3835;48.850;8.938;2023-04-07T00:09:31;5.70;99.90
7588;DHT22;3835;48.850;8.938;2023-04-07T00:11:58;5.70;99.90
7588;DHT22;3835;48.850;8.938;2023-04-07T00:14:28;5.70;99.90
7588;DHT22;3835;48.850;8.938;2023-04-07T00:16:55;5.70;99.90
7588;DHT22;3835;48.850;8.938;2023-04-07T00:19:21;5.80;99.90
7588;DHT22;3835;48.850;8.938;2023-04-07T00:21:48;5.80;99.90
7588;DHT22;3835;48.850;8.938;2023-04-07T00:24:15;5.80;99.90
7588;DHT22;3835;48.850;8.938;2023-04-07T00:26:42;5.90;99.90
7588;DHT22;3835;48.850;8.938;2023-04-07T00:29:08;5.90;99.90
7588;DHT22;3835;48.850;8.938;2023-04-07T00:31:37;6.00;99.90
7588;DHT22;3835;48.850;8.938;2023-04-07T00:34:03;6.00;99.90
7588;DHT22;3835;48.850;8.938;2023-04-07T00:36:30;6.00;99.90
7588;DHT22;3835;48.850;8.938;2023-04-07T00:38:57;5.90;99.90
7588;DHT22;3835;48.850;8.938;2023-04-07T00:41:24;5.90;99.90
7588;DHT22;3835;48.850;8.938;2023-04-07T00:43:51;5.90;99.90
7588;DHT22;3835;48.850;8.938;2023-04-07T00:46:20;5.90;99.90
7588;DHT22;3835;48.850;8.938;2023-04-07T00:48:49;5.90;99.90
7588;DHT22;3835;48.850;8.938;2023-04-07T00:51:15;5.90;99.90
7588;DHT22;3835;48.850;8.938;2023-04-07T00:53:42;5.90;99.90
7588;DHT22;3835;48.850;8.938;2023-04-07T00:56:09;5.80;99.90
7588;DHT22;3835;48.850;8.938;2023-04-07T00:58:36;5.80;99.90
7588;DHT22;3835;48.850;8.938;2023-04-07T01:01:07;5.80;99.90
7588;DHT22;3835;48.850;8.938;2023-04-07T01:03:40;5.70;99.90
7588;DHT22;3835;48.850;8.938;2023-04-07T01:06:13;5.70;99.90
7588;DHT22;3835;48.850;8.938;2023-04-07T01:08:47;5.70;99.90
7588;DHT22;3835;48.850;8.938;2023-04-07T01:11:22;5.70;99.90
7588;DHT22;3835;48.850;8.938;2023-04-07T01:13:50;5.70;99.90
7588;DHT22;3835;48.850;8.938;2023-04-07T01:16:22;5.70;99.90
7588;DHT22;3835;48.850;8.938;2023-04-07T01:18:53;5.70;99.90
7588;DHT22;3835;48.850;8.938;2023-04-07T01:21:25;5.70;99.90
7588;DHT22;3835;48.850;8.938;2023-04-07T01:24:04;5.70;99.90
7588;DHT22;3835;48.850;8.938;2023-04-07T01:26:36;5.70;99.90
7588;DHT22;3835;48.850;8.938;2023-04-07T01:29:31;5.70;99.90
7588;DHT22;3835;48.850;8.938;2023-04-07T01:32:01;5.70;99.90
7588;DHT22;3835;48.850;8.938;2023-04-07T01:34:30;5.70;99.90
7588;DHT22;3835;48.850;8.938;2023-04-07T01:36:59;5.70;99.90
7588;DHT22;3835;48.850;8.938;2023-04-07T01:39:27;5.70;99.90
7588;DHT22;3835;48.850;8.938;2023-04-07T01:41:54;5.70;99.90
7588;DHT22;3835;48.850;8.938;2023-04-07T01:44:21;5.70;99.90
7588;DHT22;3835;48.850;8.938;2023-04-07T01:46:51;5.60;99.90
7588;DHT22;3835;48.850;8.938;2023-04-07T01:49:19;5.60;99.90
7588;DHT22;3835;48.850;8.938;2023-04-07T01:51:48;5.70;99.90
7588;DHT22;3835;48.850;8.938;2023-04-07T01:54:16;5.80;99.90
7588;DHT22;3835;48.850;8.938;2023-04-07T01:56:43;5.70;99.90
7588;DHT22;3835;48.850;8.938;2023-04-07T01:59:10;5.80;99.90
7588;DHT22;3835;48.850;8.938;2023-04-07T02:01:36;5.80;99.90
7588;DHT22;3835;48.850;8.938;2023-04-07T02:04:08;5.70;99.90
7588;DHT22;3835;48.850;8.938;2023-04-07T02:06:42;5.80;99.90
7588;DHT22;3835;48.850;8.938;2023-04-07T02:09:12;5.80;99.90
7588;DHT22;3835;48.850;8.938;2023-04-07T02:11:41;5.80;99.90
7588;DHT22;3835;48.850;8.938;2023-04-07T02:14:09;5.80;99.90
7588;DHT22;3835;48.850;8.938;2023-04-07T02:16:37;5.80;99.90
7588;DHT22;3835;48.850;8.938;2023-04-07T02:19:06;5.90;99.90
7588;DHT22;3835;48.850;8.938;2023-04-07T02:21:34;5.90;99.90
7588;DHT22;3835;48.850;8.938;2023-04-07T02:24:01;5.90;99.90
7588;DHT22;3835;48.850;8.938;2023-04-07T02:26:32;5.90;99.90
7588;DHT22;3835;48.850;8.938;2023-04-07T02:28:59;5.90;99.90
7588;DHT22;3835;48.850;8.938;2023-04-07T02:31:26;5.80;99.90
7588;DHT22;3835;48.850;8.938;2023-04-07T02:33:53;5.80;99.90
7588;DHT22;3835;48.850;8.938;2023-04-07T02:36:21;5.80;99.90
7588;DHT22;3835;48.850;8.938;2023-04-07T02:38:47;5.90;99.90
7588;DHT22;3835;48.850;8.938;2023-04-07T02:41:14;5.80;99.90
7588;DHT22;3835;48.850;8.938;2023-04-07T02:43:41;5.80;99.90
7588;DHT22;3835;48.850;8.938;2023-04-07T02:46:08;5.80;99.90
7588;DHT22;3835;48.850;8.938;2023-04-07T02:48:35;5.70;99.90
7588;DHT22;3835;48.850;8.938;2023-04-07T02:51:02;5.70;99.90
7588;DHT22;3835;48.850;8.938;2023-04-07T02:53:30;5.60;99.90
7588;DHT22;3835;48.850;8.938;2023-04-07T02:55:57;5.60;99.90
7588;DHT22;3835;48.850;8.938;2023-04-07T02:58:24;5.70;99.90
7588;DHT22;3835;48.850;8.938;2023-04-07T03:00:50;5.70;99.90
7588;DHT22;3835;48.850;8.938;2023-04-07T03:03:17;5.70;99.90
7588;DHT22;3835;48.850;8.938;2023-04-07T03:05:44;5.70;99.90
7588;DHT22;3835;48.850;8.938;2023-04-07T03:08:11;5.70;99.90
7588;DHT22;3835;48.850;8.938;2023-04-07T03:10:39;5.70;99.90
7588;DHT22;3835;48.850;8.938;2023-04-07T03:13:06;5.70;99.90
7588;DHT22;3835;48.850;8.938;2023-04-07T03:15:33;5.70;99.90
7588;DHT22;3835;48.850;8.938;2023-04-07T03:18:00;5.70;99.90
7588;DHT22;3835;48.850;8.938;2023-04-07T03:20:26;5.70;99.90
7588;DHT22;3835;48.850;8.938;2023-04-07T03:22:53;5.70;99.90
7588;DHT22;3835;48.850;8.938;2023-04-07T03:25:20;5.70;99.90
7588;DHT22;3835;48.850;8.938;2023-04-07T03:27:48;5.60;99.90
7588;DHT22;3835;48.850;8.938;2023-04-07T03:30:15;5.60;99.90
7588;DHT22;3835;48.850;8.938;2023-04-07T03:32:42;5.70;99.90
7588;DHT22;3835;48.850;8.938;2023-04-07T03:35:09;5.60;99.90
7588;DHT22;3835;48.850;8.938;2023-04-07T03:37:36;5.70;99.90
7588;DHT22;3835;48.850;8.938;2023-04-07T03:40:03;5.70;99.90
7588;DHT22;3835;48.850;8.938;2023-04-07T03:42:30;5.70;99.90
7588;DHT22;3835;48.850;8.938;2023-04-07T03:44:58;5.70;99.90
7588;DHT22;3835;48.850;8.938;2023-04-07T03:47:25;5.60;99.90
7588;DHT22;3835;48.850;8.938;2023-04-07T03:49:52;5.70;99.90
7588;DHT22;3835;48.850;8.938;2023-04-07T03:52:18;5.70;99.90
7588;DHT22;3835;48.850;8.938;2023-04-07T03:54:45;5.70;99.90
7588;DHT22;3835;48.850;8.938;2023-04-07T03:57:12;5.70;99.90
7588;DHT22;3835;48.850;8.938;2023-04-07T03:59:39;5.70;99.90
7588;DHT22;3835;48.850;8.938;2023-04-07T04:02:07;5.70;99.90
7588;DHT22;3835;48.850;8.938;2023-04-07T04:04:33;5.70;99.90
7588;DHT22;3835;48.850;8.938;2023-04-07T04:07:00;5.70;99.90
7588;DHT22;3835;48.850;8.938;2023-04-07T04:09:27;5.70;99.90
7588;DHT22;3835;48.850;8.938;2023-04-07T04:11:54;5.70;99.90
7588;DHT22;3835;48.850;8.938;2023-04-07T04:14:21;5.60;99.90
7588;DHT22;3835;48.850;8.938;2023-04-07T04:16:48;5.60;99.90
7588;DHT22;3835;48.850;8.938;2023-04-07T04:19:16;5.60;99.90
7588;DHT22;3835;48.850;8.938;2023-04-07T04:21:43;5.60;99.90
7588;DHT22;3835;48.850;8.938;2023-04-07T04:24:10;5.60;99.90
7588;DHT22;3835;48.850;8.938;2023-04-07T04:26:37;5.60;99.90
7588;DHT22;3835;48.850;8.938;2023-04-07T04:29:04;5.60;99.90
7588;DHT22;3835;48.850;8.938;2023-04-07T04:31:30;5.60;99.90
7588;DHT22;3835;48.850;8.938;2023-04-07T04:33:58;5.50;99.90
7588;DHT22;3835;48.850;8.938;2023-04-07T04:36:26;5.50;99.90
7588;DHT22;3835;48.850;8.938;2023-04-07T04:38:52;5.50;99.90
7588;DHT22;3835;48.850;8.938;2023-04-07T04:41:19;5.50;99.90
7588;DHT22;3835;48.850;8.938;2023-04-07T04:43:46;5.40;99.90
7588;DHT22;3835;48.850;8.938;2023-04-07T04:46:13;5.40;99.90
7588;DHT22;3835;48.850;8.938;2023-04-07T04:48:39;5.40;99.90
7588;DHT22;3835;48.850;8.938;2023-04-07T04:51:06;5.40;99.90
7588;DHT22;3835;48.850;8.938;2023-04-07T04:53:34;5.40;99.90
7588;DHT22;3835;48.850;8.938;2023-04-07T04:56:01;5.40;99.90
7588;DHT22;3835;48.850;8.938;2023-04-07T04:58:28;5.40;99.90
7588;DHT22;3835;48.850;8.938;2023-04-07T05:00:55;5.40;99.90
7588;DHT22;3835;48.850;8.938;2023-04-07T05:03:24;5.40;99.90
7588;DHT22;3835;48.850;8.938;2023-04-07T05:05:51;5.40;99.90
7588;DHT22;3835;48.850;8.938;2023-04-07T05:08:18;5.40;99.90
7588;DHT22;3835;48.850;8.938;2023-04-07T05:10:46;5.40;99.90
7588;DHT22;3835;48.850;8.938;2023-04-07T05:13:13;5.40;99.90
7588;DHT22;3835;48.850;8.938;2023-04-07T05:15:40;5.50;99.90
7588;DHT22;3835;48.850;8.938;2023-04-07T05:18:07;5.50;99.90
7588;DHT22;3835;48.850;8.938;2023-04-07T05:20:34;5.50;99.90
7588;DHT22;3835;48.850;8.938;2023-04-07T05:23:00;5.60;99.90
7588;DHT22;3835;48.850;8.938;2023-04-07T05:25:27;5.60;99.90
7588;DHT22;3835;48.850;8.938;2023-04-07T05:27:57;5.60;99.90
7588;DHT22;3835;48.850;8.938;2023-04-07T05:30:24;5.60;99.90
7588;DHT22;3835;48.850;8.938;2023-04-07T05:32:51;5.60;99.90
7588;DHT22;3835;48.850;8.938;2023-04-07T05:35:18;5.70;99.90
7588;DHT22;3835;48.850;8.938;2023-04-07T05:37:45;5.60;99.90
7588;DHT22;3835;48.850;8.938;2023-04-07T05:40:12;5.70;99.90
7588;DHT22;3835;48.850;8.938;2023-04-07T05:42:39;5.70;99.90
7588;DHT22;3835;48.850;8.938;2023-04-07T05:45:09;5.70;99.90
7588;DHT22;3835;48.850;8.938;2023-04-07T05:47:36;5.70;99.90
7588;DHT22;3835;48.850;8.938;2023-04-07T05:50:03;5.80;99.90
7588;DHT22;3835;48.850;8.938;2023-04-07T05:52:30;5.80;99.90
7588;DHT22;3835;48.850;8.938;2023-04-07T05:54:57;5.80;99.90
7588;DHT22;3835;48.850;8.938;2023-04-07T05:57:24;5.80;99.90
7588;DHT22;3835;48.850;8.938;2023-04-07T05:59:52;5.80;99.90
7588;DHT22;3835;48.850;8.938;2023-04-07T06:02:20;5.80;99.90
7588;DHT22;3835;48.850;8.938;2023-04-07T06:04:47;5.80;99.90
7588;DHT22;3835;48.850;8.938;2023-04-07T06:07:14;5.80;99.90
7588;DHT22;3835;48.850;8.938;2023-04-07T06:09:40;5.80;99.90
7588;DHT22;3835;48.850;8.938;2023-04-07T06:12:08;5.90;99.90
7588;DHT22;3835;48.850;8.938;2023-04-07T06:14:36;6.00;99.90
7588;DHT22;3835;48.850;8.938;2023-04-07T06:17:03;6.10;99.90
7588;DHT22;3835;48.850;8.938;2023-04-07T06:19:31;6.10;99.90
7588;DHT22;3835;48.850;8.938;2023-04-07T06:21:58;6.20;99.90
7588;DHT22;3835;48.850;8.938;2023-04-07T06:24:25;6.20;99.90
7588;DHT22;3835;48.850;8.938;2023-04-07T06:26:52;6.30;99.90
7588;DHT22;3835;48.850;8.938;2023-04-07T06:29:20;6.40;99.90
7588;DHT22;3835;48.850;8.938;2023-04-07T06:31:47;6.50;99.90
7588;DHT22;3835;48.850;8.938;2023-04-07T06:34:14;6.70;99.90
7588;DHT22;3835;48.850;8.938;2023-04-07T06:36:42;6.90;99.90
7588;DHT22;3835;48.850;8.938;2023-04-07T06:39:09;7.20;99.90
7588;DHT22;3835;48.850;8.938;2023-04-07T06:41:35;7.40;99.90
7588;DHT22;3835;48.850;8.938;2023-04-07T06:44:03;7.90;99.90
7588;DHT22;3835;48.850;8.938;2023-04-07T06:46:30;8.10;99.90
7588;DHT22;3835;48.850;8.938;2023-04-07T06:48:57;8.20;99.90
7588;DHT22;3835;48.850;8.938;2023-04-07T06:51:24;8.20;99.90
7588;DHT22;3835;48.850;8.938;2023-04-07T06:53:52;8.20;99.90
7588;DHT22;3835;48.850;8.938;2023-04-07T06:56:19;8.30;99.90
7588;DHT22;3835;48.850;8.938;2023-04-07T06:58:46;8.50;99.90
7588;DHT22;3835;48.850;8.938;2023-04-07T07:01:13;8.50;99.90
7588;DHT22;3835;48.850;8.938;2023-04-07T07:03:40;8.50;99.90
7588;DHT22;3835;48.850;8.938;2023-04-07T07:06:07;8.50;99.90
7588;DHT22;3835;48.850;8.938;2023-04-07T07:08:33;8.50;99.90
7588;DHT22;3835;48.850;8.938;2023-04-07T07:11:02;8.50;99.90
7588;DHT22;3835;48.850;8.938;2023-04-07T07:13:28;8.50;99.90
7588;DHT22;3835;48.850;8.938;2023-04-07T07:15:55;8.50;99.90
7588;DHT22;3835;48.850;8.938;2023-04-07T07:18:22;8.60;99.90
7588;DHT22;3835;48.850;8.938;2023-04-07T07:20:49;8.60;99.90
7588;DHT22;3835;48.850;8.938;2023-04-07T07:23:16;9.00;99.90
7588;DHT22;3835;48.850;8.938;2023-04-07T07:25:42;9.40;99.90
7588;DHT22;3835;48.850;8.938;2023-04-07T07:28:11;9.50;99.90
7588;DHT22;3835;48.850;8.938;2023-04-07T07:30:38;9.50;99.90
7588;DHT22;3835;48.850;8.938;2023-04-07T07:33:06;9.70;99.90
7588;DHT22;3835;48.850;8.938;2023-04-07T07:35:33;9.80;99.90
7588;DHT22;3835;48.850;8.938;2023-04-07T07:38:01;9.70;99.90
7588;DHT22;3835;48.850;8.938;2023-04-07T07:40:29;9.90;99.90
7588;DHT22;3835;48.850;8.938;2023-04-07T07:42:55;10.00;99.90
7588;DHT22;3835;48.850;8.938;2023-04-07T07:45:23;10.10;99.90
7588;DHT22;3835;48.850;8.938;2023-04-07T07:47:50;10.00;99.90
7588;DHT22;3835;48.850;8.938;2023-04-07T07:50:17;10.10;99.90
7588;DHT22;3835;48.850;8.938;2023-04-07T07:52:44;10.10;99.90
7588;DHT22;3835;48.850;8.938;2023-04-07T07:55:12;10.20;99.90
7588;DHT22;3835;48.850;8.938;2023-04-07T07:57:39;10.20;99.90
7588;DHT22;3835;48.850;8.938;2023-04-07T08:00:07;10.20;99.90
7588;DHT22;3835;48.850;8.938;2023-04-07T08:02:36;10.00;99.90
7588;DHT22;3835;48.850;8.938;2023-04-07T08:05:03;9.60;99.90
7588;DHT22;3835;48.850;8.938;2023-04-07T08:07:30;9.70;99.90
7588;DHT22;3835;48.850;8.938;2023-04-07T08:09:57;9.70;99.90
7588;DHT22;3835;48.850;8.938;2023-04-07T08:12:24;9.70;99.90
7588;DHT22;3835;48.850;8.938;2023-04-07T08:14:51;9.80;99.90
7588;DHT22;3835;48.850;8.938;2023-04-07T08:17:17;9.90;99.90
7588;DHT22;3835;48.850;8.938;2023-04-07T08:19:46;9.80;99.90
7588;DHT22;3835;48.850;8.938;2023-04-07T08:22:12;10.00;99.90
7588;DHT22;3835;48.850;8.938;2023-04-07T08:24:40;9.90;99.90
7588;DHT22;3835;48.850;8.938;2023-04-07T08:27:06;9.90;99.90
7588;DHT22;3835;48.850;8.938;2023-04-07T08:29:33;10.20;99.90
7588;DHT22;3835;48.850;8.938;2023-04-07T08:32:00;10.50;99.90
7588;DHT22;3835;48.850;8.938;2023-04-07T08:34:27;10.90;99.90
7588;DHT22;3835;48.850;8.938;2023-04-07T08:36:55;11.10;99.90
7588;DHT22;3835;48.850;8.938;2023-04-07T08:39:22;11.20;99.90
7588;DHT22;3835;48.850;8.938;2023-04-07T08:41:50;11.50;99.90
7588;DHT22;3835;48.850;8.938;2023-04-07T08:44:19;11.70;99.90
7588;DHT22;3835;48.850;8.938;2023-04-07T08:46:47;11.50;99.90
7588;DHT22;3835;48.850;8.938;2023-04-07T08:49:16;10.90;99.90
7588;DHT22;3835;48.850;8.938;2023-04-07T08:51:44;10.60;99.90
7588;DHT22;3835;48.850;8.938;2023-04-07T08:54:15;10.20;99.90
7588;DHT22;3835;48.850;8.938;2023-04-07T08:56:44;10.40;99.90
7588;DHT22;3835;48.850;8.938;2023-04-07T08:59:12;10.30;99.90
7588;DHT22;3835;48.850;8.938;2023-04-07T09:01:39;10.30;99.90
7588;DHT22;3835;48.850;8.938;2023-04-07T09:04:07;10.10;99.90
7588;DHT22;3835;48.850;8.938;2023-04-07T09:06:34;10.20;99.90
7588;DHT22;3835;48.850;8.938;2023-04-07T09:09:03;10.30;99.90
7588;DHT22;3835;48.850;8.938;2023-04-07T09:11:35;10.80;99.90
7588;DHT22;3835;48.850;8.938;2023-04-07T09:14:02;11.00;99.90
7588;DHT22;3835;48.850;8.938;2023-04-07T09:16:29;11.70;99.90
7588;DHT22;3835;48.850;8.938;2023-04-07T09:18:56;12.10;99.90
7588;DHT22;3835;48.850;8.938;2023-04-07T09:21:23;12.00;99.90
7588;DHT22;3835;48.850;8.938;2023-04-07T09:23:51;11.40;99.90
7588;DHT22;3835;48.850;8.938;2023-04-07T09:26:21;11.10;99.90
7588;DHT22;3835;48.850;8.938;2023-04-07T09:28:52;11.00;99.90
7588;DHT22;3835;48.850;8.938;2023-04-07T09:31:19;11.40;99.90
7588;DHT22;3835;48.850;8.938;2023-04-07T09:33:47;11.20;99.90
7588;DHT22;3835;48.850;8.938;2023-04-07T09:36:14;11.10;99.90
7588;DHT22;3835;48.850;8.938;2023-04-07T09:38:42;11.00;99.90
7588;DHT22;3835;48.850;8.938;2023-04-07T09:41:11;10.80;99.90
7588;DHT22;3835;48.850;8.938;2023-04-07T09:43:39;10.80;99.90
7588;DHT22;3835;48.850;8.938;2023-04-07T09:46:12;10.60;99.90
7588;DHT22;3835;48.850;8.938;2023-04-07T09:48:40;11.00;99.90
7588;DHT22;3835;48.850;8.938;2023-04-07T09:51:08;11.30;99.90
7588;DHT22;3835;48.850;8.938;2023-04-07T09:53:43;11.90;99.90
7588;DHT22;3835;48.850;8.938;2023-04-07T09:56:12;12.30;99.90
7588;DHT22;3835;48.850;8.938;2023-04-07T09:58:41;12.50;99.90
7588;DHT22;3835;48.850;8.938;2023-04-07T10:01:10;12.10;99.90
7588;DHT22;3835;48.850;8.938;2023-04-07T10:03:37;11.70;99.90
7588;DHT22;3835;48.850;8.938;2023-04-07T10:06:05;11.20;99.90
7588;DHT22;3835;48.850;8.938;2023-04-07T10:08:35;11.20;99.90
7588;DHT22;3835;48.850;8.938;2023-04-07T10:11:03;11.00;99.90
7588;DHT22;3835;48.850;8.938;2023-04-07T10:13:31;10.90;99.90
7588;DHT22;3835;48.850;8.938;2023-04-07T10:15:59;11.00;99.90
7588;DHT22;3835;48.850;8.938;2023-04-07T10:18:30;11.20;99.90
7588;DHT22;3835;48.850;8.938;2023-04-07T10:21:00;11.00;99.90
7588;DHT22;3835;48.850;8.938;2023-04-07T10:23:36;11.00;99.90
7588;DHT22;3835;48.850;8.938;2023-04-07T10:26:05;11.60;99.90
7588;DHT22;3835;48.850;8.938;2023-04-07T10:28:33;11.70;99.90
7588;DHT22;3835;48.850;8.938;2023-04-07T10:31:03;12.10;99.90
7588;DHT22;3835;48.850;8.938;2023-04-07T10:33:45;12.30;99.90
7588;DHT22;3835;48.850;8.938;2023-04-07T10:36:12;12.30;99.90
7588;DHT22;3835;48.850;8.938;2023-04-07T10:38:39;12.10;99.90
7588;DHT22;3835;48.850;8.938;2023-04-07T10:41:32;12.20;99.90
7588;DHT22;3835;48.850;8.938;2023-04-07T10:44:00;12.20;99.90
7588;DHT22;3835;48.850;8.938;2023-04-07T10:47:01;11.90;99.90
7588;DHT22;3835;48.850;8.938;2023-04-07T10:49:29;11.40;99.90
7588;DHT22;3835;48.850;8.938;2023-04-07T10:52:21;11.50;99.90
7588;DHT22;3835;48.850;8.938;2023-04-07T10:55:27;11.60;99.90
7588;DHT22;3835;48.850;8.938;2023-04-07T10:58:19;11.50;99.90
7588;DHT22;3835;48.850;8.938;2023-04-07T11:01:18;11.50;99.90
7588;DHT22;3835;48.850;8.938;2023-04-07T11:03:54;11.50;99.90
7588;DHT22;3835;48.850;8.938;2023-04-07T11:06:22;11.50;99.90
7588;DHT22;3835;48.850;8.938;2023-04-07T11:08:51;11.50;99.90
7588;DHT22;3835;48.850;8.938;2023-04-07T11:11:33;11.50;99.90
7588;DHT22;3835;48.850;8.938;2023-04-07T11:14:00;11.80;99.90
7588;DHT22;3835;48.850;8.938;2023-04-07T11:16:35;12.20;99.90
7588;DHT22;3835;48.850;8.938;2023-04-07T11:19:02;12.40;99.90
7588;DHT22;3835;48.850;8.938;2023-04-07T11:21:30;12.00;99.90
7588;DHT22;3835;48.850;8.938;2023-04-07T11:23:57;11.40;99.90
7588;DHT22;3835;48.850;8.938;2023-04-07T11:26:24;11.10;99.90
7588;DHT22;3835;48.850;8.938;2023-04-07T11:28:52;10.80;99.90
7588;DHT22;3835;48.850;8.938;2023-04-07T11:31:21;10.60;99.90
7588;DHT22;3835;48.850;8.938;2023-04-07T11:33:51;10.60;99.90
7588;DHT22;3835;48.850;8.938;2023-04-07T11:36:26;10.60;99.90
7588;DHT22;3835;48.850;8.938;2023-04-07T11:38:54;10.40;99.90
7588;DHT22;3835;48.850;8.938;2023-04-07T11:41:22;10.30;99.90
7588;DHT22;3835;48.850;8.938;2023-04-07T11:44:02;10.20;99.90
7588;DHT22;3835;48.850;8.938;2023-04-07T11:46:29;10.10;99.90
7588;DHT22;3835;48.850;8.938;2023-04-07T11:49:07;10.10;99.90
7588;DHT22;3835;48.850;8.938;2023-04-07T11:51:34;10.20;99.90
7588;DHT22;3835;48.850;8.938;2023-04-07T11:54:02;10.30;99.90
7588;DHT22;3835;48.850;8.938;2023-04-07T11:56:29;10.30;99.90
7588;DHT22;3835;48.850;8.938;2023-04-07T11:59:06;10.40;99.90
7588;DHT22;3835;48.850;8.938;2023-04-07T12:01:40;10.40;99.90
7588;DHT22;3835;48.850;8.938;2023-04-07T12:04:11;10.40;99.90
7588;DHT22;3835;48.850;8.938;2023-04-07T12:06:38;10.30;99.90
7588;DHT22;3835;48.850;8.938;2023-04-07T12:09:22;10.30;99.90
7588;DHT22;3835;48.850;8.938;2023-04-07T12:11:50;10.40;99.90
7588;DHT22;3835;48.850;8.938;2023-04-07T12:14:16;10.30;99.90
7588;DHT22;3835;48.850;8.938;2023-04-07T12:16:44;10.30;99.90
7588;DHT22;3835;48.850;8.938;2023-04-07T12:19:11;10.20;99.90
7588;DHT22;3835;48.850;8.938;2023-04-07T12:21:38;10.10;99.90
7588;DHT22;3835;48.850;8.938;2023-04-07T12:24:05;9.90;99.90
7588;DHT22;3835;48.850;8.938;2023-04-07T12:26:33;9.70;99.90
7588;DHT22;3835;48.850;8.938;2023-04-07T12:28:59;9.50;99.90
7588;DHT22;3835;48.850;8.938;2023-04-07T12:31:30;9.50;99.90
7588;DHT22;3835;48.850;8.938;2023-04-07T12:33:56;9.40;99.90
7588;DHT22;3835;48.850;8.938;2023-04-07T12:36:23;9.40;99.90
7588;DHT22;3835;48.850;8.938;2023-04-07T12:38:50;9.40;99.90
7588;DHT22;3835;48.850;8.938;2023-04-07T12:41:17;9.40;99.90
7588;DHT22;3835;48.850;8.938;2023-04-07T12:43:45;9.40;99.90
7588;DHT22;3835;48.850;8.938;2023-04-07T12:46:12;9.40;99.90
7588;DHT22;3835;48.850;8.938;2023-04-07T12:48:39;9.30;99.90
7588;DHT22;3835;48.850;8.938;2023-04-07T12:51:06;9.30;99.90
7588;DHT22;3835;48.850;8.938;2023-04-07T12:53:33;9.40;99.90
7588;DHT22;3835;48.850;8.938;2023-04-07T12:55:59;9.40;99.90
7588;DHT22;3835;48.850;8.938;2023-04-07T12:58:26;9.50;99.90
7588;DHT22;3835;48.850;8.938;2023-04-07T13:00:55;9.40;99.90
7588;DHT22;3835;48.850;8.938;2023-04-07T13:03:23;9.40;99.90
7588;DHT22;3835;48.850;8.938;2023-04-07T13:05:49;9.40;99.90
7588;DHT22;3835;48.850;8.938;2023-04-07T13:08:18;9.40;99.90
7588;DHT22;3835;48.850;8.938;2023-04-07T13:10:45;9.60;99.90
7588;DHT22;3835;48.850;8.938;2023-04-07T13:13:12;10.00;99.90
7588;DHT22;3835;48.850;8.938;2023-04-07T13:15:39;10.20;99.90
7588;DHT22;3835;48.850;8.938;2023-04-07T13:18:07;10.40;99.90
7588;DHT22;3835;48.850;8.938;2023-04-07T13:20:34;10.50;99.90
7588;DHT22;3835;48.850;8.938;2023-04-07T13:23:01;10.50;99.90
7588;DHT22;3835;48.850;8.938;2023-04-07T13:25:27;10.60;99.90
7588;DHT22;3835;48.850;8.938;2023-04-07T13:27:54;10.70;99.90
7588;DHT22;3835;48.850;8.938;2023-04-07T13:30:21;10.90;99.90
7588;DHT22;3835;48.850;8.938;2023-04-07T13:32:47;11.00;99.90
7588;DHT22;3835;48.850;8.938;2023-04-07T13:35:16;11.10;99.90
7588;DHT22;3835;48.850;8.938;2023-04-07T13:37:43;11.30;99.90
7588;DHT22;3835;48.850;8.938;2023-04-07T13:40:11;11.20;99.90
7588;DHT22;3835;48.850;8.938;2023-04-07T13:42:38;10.90;99.90
7588;DHT22;3835;48.850;8.938;2023-04-07T13:45:05;11.00;99.90
7588;DHT22;3835;48.850;8.938;2023-04-07T13:47:32;11.10;99.90
7588;DHT22;3835;48.850;8.938;2023-04-07T13:50:00;11.20;99.90
7588;DHT22;3835;48.850;8.938;2023-04-07T13:52:28;11.30;99.90
7588;DHT22;3835;48.850;8.938;2023-04-07T13:54:57;11.30;99.90
7588;DHT22;3835;48.850;8.938;2023-04-07T13:57:24;11.50;99.90
7588;DHT22;3835;48.850;8.938;2023-04-07T13:59:51;11.60;99.90
7588;DHT22;3835;48.850;8.938;2023-04-07T14:02:18;11.60;99.90
7588;DHT22;3835;48.850;8.938;2023-04-07T14:04:45;11.30;99.90
7588;DHT22;3835;48.850;8.938;2023-04-07T14:07:12;11.20;99.90
7588;DHT22;3835;48.850;8.938;2023-04-07T14:09:40;11.10;99.90
7588;DHT22;3835;48.850;8.938;2023-04-07T14:12:08;11.00;99.90
7588;DHT22;3835;48.850;8.938;2023-04-07T14:14:35;11.00;99.90
7588;DHT22;3835;48.850;8.938;2023-04-07T14:17:02;11.20;99.90
7588;DHT22;3835;48.850;8.938;2023-04-07T14:19:29;11.30;99.90
7588;DHT22;3835;48.850;8.938;2023-04-07T14:21:57;11.30;99.90
7588;DHT22;3835;48.850;8.938;2023-04-07T14:24:24;11.20;99.90
7588;DHT22;3835;48.850;8.938;2023-04-07T14:26:52;11.00;99.90
7588;DHT22;3835;48.850;8.938;2023-04-07T14:29:19;10.80;99.90
7588;DHT22;3835;48.850;8.938;2023-04-07T14:31:46;10.80;99.90
7588;DHT22;3835;48.850;8.938;2023-04-07T14:34:14;10.90;99.90
7588;DHT22;3835;48.850;8.938;2023-04-07T14:36:42;10.90;99.90
7588;DHT22;3835;48.850;8.938;2023-04-07T14:39:17;10.90;99.90
7588;DHT22;3835;48.850;8.938;2023-04-07T14:41:44;10.90;99.90
7588;DHT22;3835;48.850;8.938;2023-04-07T14:44:13;11.00;99.90
7588;DHT22;3835;48.850;8.938;2023-04-07T14:46:40;11.20;99.90
7588;DHT22;3835;48.850;8.938;2023-04-07T14:49:07;11.40;99.90
7588;DHT22;3835;48.850;8.938;2023-04-07T14:51:34;11.60;99.90
7588;DHT22;3835;48.850;8.938;2023-04-07T14:54:01;11.70;99.90
7588;DHT22;3835;48.850;8.938;2023-04-07T14:56:28;12.00;99.90
7588;DHT22;3835;48.850;8.938;2023-04-07T14:58:55;11.90;99.90
7588;DHT22;3835;48.850;8.938;2023-04-07T15:01:23;12.10;99.90
7588;DHT22;3835;48.850;8.938;2023-04-07T15:03:50;12.20;99.90
7588;DHT22;3835;48.850;8.938;2023-04-07T15:06:18;12.60;99.90
7588;DHT22;3835;48.850;8.938;2023-04-07T15:08:44;12.60;99.90
7588;DHT22;3835;48.850;8.938;2023-04-07T15:11:12;12.70;99.90
7588;DHT22;3835;48.850;8.938;2023-04-07T15:13:38;12.80;99.90
7588;DHT22;3835;48.850;8.938;2023-04-07T15:16:07;13.10;99.90
7588;DHT22;3835;48.850;8.938;2023-04-07T15:18:35;12.80;99.90
7588;DHT22;3835;48.850;8.938;2023-04-07T15:21:02;12.60;99.90
7588;DHT22;3835;48.850;8.938;2023-04-07T15:23:29;12.50;99.90
7588;DHT22;3835;48.850;8.938;2023-04-07T15:25:57;12.40;99.90
7588;DHT22;3835;48.850;8.938;2023-04-07T15:28:24;12.30;99.90
7588;DHT22;3835;48.850;8.938;2023-04-07T15:30:51;12.40;99.90
7588;DHT22;3835;48.850;8.938;2023-04-07T15:33:18;12.60;99.90
7588;DHT22;3835;48.850;8.938;2023-04-07T15:35:46;12.70;99.90
7588;DHT22;3835;48.850;8.938;2023-04-07T15:38:13;12.70;99.90
7588;DHT22;3835;48.850;8.938;2023-04-07T15:40:40;12.80;99.90
7588;DHT22;3835;48.850;8.938;2023-04-07T15:43:07;12.70;99.90
7588;DHT22;3835;48.850;8.938;2023-04-07T15:45:39;12.50;99.90
7588;DHT22;3835;48.850;8.938;2023-04-07T15:48:07;11.90;99.90
7588;DHT22;3835;48.850;8.938;2023-04-07T15:50:34;11.70;99.90
7588;DHT22;3835;48.850;8.938;2023-04-07T15:53:03;11.60;99.90
7588;DHT22;3835;48.850;8.938;2023-04-07T15:55:30;11.40;99.90
7588;DHT22;3835;48.850;8.938;2023-04-07T15:57:57;11.40;99.90
7588;DHT22;3835;48.850;8.938;2023-04-07T16:00:25;11.20;99.90
7588;DHT22;3835;48.850;8.938;2023-04-07T16:02:52;11.20;99.90
7588;DHT22;3835;48.850;8.938;2023-04-07T16:05:18;11.00;99.90
7588;DHT22;3835;48.850;8.938;2023-04-07T16:07:45;10.90;99.90
7588;DHT22;3835;48.850;8.938;2023-04-07T16:10:14;10.80;99.90
7588;DHT22;3835;48.850;8.938;2023-04-07T16:12:44;10.60;99.90
7588;DHT22;3835;48.850;8.938;2023-04-07T16:15:11;10.40;99.90
7588;DHT22;3835;48.850;8.938;2023-04-07T16:17:38;10.20;99.90